createdAt,value
2019-02-23T00:02:08.431Z,23.70
2019-02-23T00:04:37.079Z,23.40
2019-02-23T00:07:05.897Z,24.30
2019-02-23T00:09:34.501Z,24.30
2019-02-23T00:12:04.672Z,24.63
2019-02-23T00:14:33.643Z,24.77
2019-02-23T00:17:02.524Z,24.93
2019-02-23T00:19:31.283Z,24.13
2019-02-23T00:22:00.364Z,24.43
2019-02-23T00:24:29.086Z,24.27
2019-02-23T00:26:57.745Z,25.00
2019-02-23T00:29:26.392Z,23.30
2019-02-23T00:31:55.195Z,24.30
2019-02-23T00:34:23.959Z,22.90
2019-02-23T00:36:52.682Z,25.37
2019-02-23T00:39:21.386Z,24.07
2019-02-23T00:41:50.070Z,25.60
2019-02-23T00:44:18.687Z,24.67
2019-02-23T00:46:47.402Z,24.10
2019-02-23T00:49:16.107Z,26.60
2019-02-23T00:51:45.136Z,25.90
2019-02-23T00:54:14.218Z,24.93
2019-02-23T00:56:43.041Z,25.80
2019-02-23T00:59:11.836Z,25.70
2019-02-23T01:01:40.703Z,25.87
2019-02-23T01:04:09.429Z,25.90
2019-02-23T01:06:38.385Z,26.13
2019-02-23T01:09:07.243Z,26.87
2019-02-23T01:11:35.935Z,27.73
2019-02-23T01:14:04.632Z,27.43
2019-02-23T01:16:33.480Z,28.13
2019-02-23T01:19:02.188Z,27.90
2019-02-23T01:21:30.839Z,27.23
2019-02-23T01:23:59.559Z,27.37
2019-02-23T01:26:28.347Z,27.70
2019-02-23T01:28:56.979Z,27.27
2019-02-23T01:31:25.711Z,27.37
2019-02-23T01:33:54.404Z,28.87
2019-02-23T01:36:23.459Z,28.40
2019-02-23T01:38:52.428Z,28.53
2019-02-23T01:41:21.179Z,27.67
2019-02-23T01:43:49.823Z,29.03
2019-02-23T01:46:18.685Z,27.23
2019-02-23T01:48:47.379Z,27.37
2019-02-23T01:51:15.993Z,27.40
2019-02-23T01:53:45.207Z,27.97
2019-02-23T01:56:13.944Z,27.77
2019-02-23T01:58:42.685Z,27.97
2019-02-23T02:01:11.759Z,27.63
2019-02-23T02:03:40.622Z,28.50
2019-02-23T02:06:09.377Z,28.30
2019-02-23T02:08:38.402Z,28.73
2019-02-23T02:11:07.324Z,27.77
2019-02-23T02:13:36.145Z,27.83
2019-02-23T02:16:05.183Z,26.40
2019-02-23T02:18:34.229Z,25.97
2019-02-23T02:21:03.333Z,26.33
2019-02-23T02:23:32.499Z,26.67
2019-02-23T02:26:01.212Z,25.73
2019-02-23T02:28:30.517Z,27.83
2019-02-23T02:30:59.181Z,27.00
2019-02-23T02:33:28.045Z,25.97
2019-02-23T02:35:56.831Z,27.27
2019-02-23T02:38:25.499Z,26.10
2019-02-23T02:40:54.413Z,26.57
2019-02-23T02:43:23.438Z,26.20
2019-02-23T02:45:52.081Z,26.33
2019-02-23T02:48:21.035Z,27.17
2019-02-23T02:50:49.980Z,26.73
2019-02-23T02:53:18.568Z,27.50
2019-02-23T02:55:47.592Z,26.10
2019-02-23T02:58:16.273Z,25.23
2019-02-23T03:00:44.995Z,26.83
2019-02-23T03:03:13.738Z,26.77
2019-02-23T03:05:42.630Z,26.53
2019-02-23T03:08:11.320Z,26.07
2019-02-23T03:10:39.975Z,25.80
2019-02-23T03:13:08.625Z,25.70
2019-02-23T03:15:37.306Z,25.27
2019-02-23T03:18:06.075Z,23.93
2019-02-23T03:20:36.888Z,24.70
2019-02-23T03:23:05.594Z,24.03
2019-02-23T03:25:34.368Z,23.97
2019-02-23T03:28:03.072Z,24.40
2019-02-23T03:30:31.758Z,24.80
2019-02-23T03:33:00.657Z,23.17
2019-02-23T03:35:29.473Z,25.33
2019-02-23T03:37:58.363Z,24.20
2019-02-23T03:40:27.095Z,24.93
2019-02-23T03:42:55.931Z,24.17
2019-02-23T03:45:24.697Z,24.10
2019-02-23T03:47:53.322Z,24.17
2019-02-23T03:50:22.034Z,24.57
2019-02-23T03:52:50.857Z,23.47
2019-02-23T03:55:19.664Z,23.50
2019-02-23T03:57:48.506Z,24.00
2019-02-23T04:00:17.426Z,24.50
2019-02-23T04:02:46.324Z,24.00
2019-02-23T04:05:15.117Z,24.23
2019-02-23T04:07:43.835Z,24.57
2019-02-23T04:10:12.586Z,23.83
2019-02-23T04:12:41.668Z,24.13
2019-02-23T04:15:10.538Z,24.80
2019-02-23T04:17:39.278Z,24.30
2019-02-23T04:20:08.525Z,23.80
2019-02-23T04:22:37.159Z,24.73
2019-02-23T04:25:06.211Z,24.77
2019-02-23T04:27:35.148Z,23.73
2019-02-23T04:30:04.236Z,23.87
2019-02-23T04:32:32.997Z,23.93
2019-02-23T04:35:01.854Z,23.63
2019-02-23T04:37:30.496Z,25.00
2019-02-23T04:39:59.241Z,23.30
2019-02-23T04:42:27.922Z,23.43
2019-02-23T04:44:56.816Z,25.17
2019-02-23T04:47:25.693Z,23.77
2019-02-23T04:49:55.109Z,23.90
2019-02-23T04:52:23.834Z,23.00
2019-02-23T04:54:52.570Z,23.37
2019-02-23T04:57:21.715Z,24.17
2019-02-23T04:59:50.545Z,24.17
2019-02-23T05:02:19.363Z,23.20
2019-02-23T05:04:48.080Z,22.97
2019-02-23T05:07:16.824Z,22.63
2019-02-23T05:09:45.560Z,22.60
2019-02-23T05:12:14.378Z,22.23
2019-02-23T05:14:43.218Z,24.53
2019-02-23T05:17:11.980Z,24.17
2019-02-23T05:19:40.720Z,23.80
2019-02-23T05:22:09.641Z,21.97
2019-02-23T05:24:38.434Z,23.03
2019-02-23T05:27:07.121Z,24.07
2019-02-23T05:29:36.061Z,22.70
2019-02-23T05:32:04.914Z,21.90
2019-02-23T05:34:33.586Z,21.57
2019-02-23T05:37:02.654Z,22.60
2019-02-23T05:39:31.375Z,22.57
2019-02-23T05:42:00.272Z,21.10
2019-02-23T05:44:29.376Z,21.97
2019-02-23T05:46:58.324Z,22.13
2019-02-23T05:49:27.036Z,21.93
2019-02-23T05:51:56.007Z,22.37
2019-02-23T05:54:24.717Z,22.67
2019-02-23T05:56:53.401Z,23.17
2019-02-23T05:59:22.123Z,22.63
2019-02-23T06:01:50.980Z,23.00
2019-02-23T06:04:19.614Z,22.90
2019-02-23T06:06:48.326Z,23.13
2019-02-23T06:09:17.317Z,23.00
2019-02-23T06:11:46.133Z,22.93
2019-02-23T06:14:15.220Z,23.00
2019-02-23T06:16:43.914Z,22.60
2019-02-23T06:19:12.629Z,22.63
2019-02-23T06:21:52.669Z,23.77
2019-02-23T06:24:12.062Z,21.93
2019-02-23T06:26:41.149Z,22.93
2019-02-23T06:29:10.111Z,22.37
2019-02-23T06:31:38.788Z,22.57
2019-02-23T06:34:15.993Z,22.77
2019-02-23T06:36:38.097Z,22.83
2019-02-23T06:39:06.743Z,23.53
2019-02-23T06:41:35.490Z,25.37
2019-02-23T06:44:04.386Z,23.50
2019-02-23T06:46:33.290Z,23.30
2019-02-23T06:49:02.352Z,22.33
2019-02-23T06:51:31.175Z,22.63
2019-02-23T06:53:59.894Z,21.63
2019-02-23T06:56:28.760Z,22.50
2019-02-23T06:58:57.536Z,22.60
2019-02-23T07:01:26.384Z,21.67
2019-02-23T07:03:55.078Z,22.20
2019-02-23T07:06:23.732Z,22.03
2019-02-23T07:08:52.467Z,21.73
2019-02-23T07:11:21.244Z,21.93
2019-02-23T07:13:50.064Z,21.47
2019-02-23T07:16:18.876Z,21.77
2019-02-23T07:18:47.990Z,20.67
2019-02-23T07:21:17.189Z,22.87
2019-02-23T07:23:45.906Z,20.63
2019-02-23T07:26:14.681Z,20.47
2019-02-23T07:28:43.347Z,21.40
2019-02-23T07:31:12.044Z,21.07
2019-02-23T07:33:40.738Z,19.87
2019-02-23T07:36:09.381Z,19.93
2019-02-23T07:38:38.075Z,20.23
2019-02-23T07:41:07.048Z,19.67
2019-02-23T07:43:35.920Z,19.57
2019-02-23T07:46:04.580Z,20.60
2019-02-23T07:48:33.208Z,19.20
2019-02-23T07:51:01.969Z,19.50
2019-02-23T07:53:30.676Z,19.33
2019-02-23T07:55:59.424Z,18.60
2019-02-23T07:58:28.136Z,19.50
2019-02-23T08:00:56.912Z,18.60
2019-02-23T08:03:25.784Z,18.73
2019-02-23T08:05:54.483Z,19.77
2019-02-23T08:08:23.149Z,18.80
2019-02-23T08:10:51.787Z,19.37
2019-02-23T08:13:20.561Z,19.07
2019-02-23T08:15:49.608Z,18.67
2019-02-23T08:18:18.616Z,18.53
2019-02-23T08:20:47.382Z,18.83
2019-02-23T08:23:16.090Z,19.10
2019-02-23T08:25:44.718Z,18.70
2019-02-23T08:28:13.495Z,19.93
2019-02-23T08:30:42.372Z,19.53
2019-02-23T08:33:11.254Z,19.30
2019-02-23T08:35:39.943Z,19.03
2019-02-23T08:38:08.564Z,18.50
2019-02-23T08:40:37.651Z,19.13
2019-02-23T08:43:06.390Z,18.77
2019-02-23T08:45:35.029Z,19.07
2019-02-23T08:48:03.702Z,19.30
2019-02-23T08:50:32.587Z,19.73
2019-02-23T08:53:01.334Z,19.20
2019-02-23T08:55:30.000Z,18.83
2019-02-23T08:57:58.659Z,18.23
2019-02-23T09:00:27.440Z,18.37
2019-02-23T09:02:56.158Z,17.33
2019-02-23T09:05:24.977Z,18.90
2019-02-23T09:07:53.664Z,17.77
2019-02-23T09:10:22.430Z,17.80
2019-02-23T09:12:51.163Z,17.60
2019-02-23T09:15:22.181Z,17.67
2019-02-23T09:17:50.444Z,17.83
2019-02-23T09:20:28.639Z,18.23
2019-02-23T09:22:59.719Z,17.83
2019-02-23T09:25:19.914Z,17.40
2019-02-23T09:27:48.810Z,17.63
2019-02-23T09:30:17.570Z,18.10
2019-02-23T09:32:46.433Z,17.07
2019-02-23T09:35:15.078Z,16.90
2019-02-23T09:37:43.822Z,17.20
2019-02-23T09:40:12.544Z,17.00
2019-02-23T09:42:41.345Z,17.33
2019-02-23T09:45:10.743Z,17.50
2019-02-23T09:47:39.623Z,16.73
2019-02-23T09:50:08.245Z,17.10
2019-02-23T09:52:37.068Z,17.10
2019-02-23T09:55:06.479Z,16.30
2019-02-23T09:57:35.169Z,16.87
2019-02-23T10:00:03.967Z,16.63
2019-02-23T10:02:32.705Z,16.80
2019-02-23T10:05:01.449Z,16.23
2019-02-23T10:07:30.102Z,16.73
2019-02-23T10:09:58.749Z,16.97
2019-02-23T10:12:27.376Z,16.10
2019-02-23T10:14:56.220Z,16.03
2019-02-23T10:17:25.042Z,17.03
2019-02-23T10:19:53.779Z,16.33
2019-02-23T10:22:22.777Z,17.40
2019-02-23T10:24:51.516Z,16.33
2019-02-23T10:27:20.396Z,16.20
2019-02-23T10:29:49.049Z,15.67
2019-02-23T10:32:17.943Z,15.87
2019-02-23T10:34:46.721Z,15.77
2019-02-23T10:37:15.567Z,15.70
2019-02-23T10:39:44.396Z,16.10
2019-02-23T10:42:13.174Z,15.47
2019-02-23T10:44:42.023Z,15.60
2019-02-23T10:47:10.655Z,16.33
2019-02-23T10:49:39.640Z,15.60
2019-02-23T10:52:08.266Z,15.43
2019-02-23T10:54:36.951Z,16.10
2019-02-23T10:57:05.690Z,15.17
2019-02-23T10:59:34.554Z,15.83
2019-02-23T11:02:03.349Z,15.53
2019-02-23T11:04:32.140Z,15.37
2019-02-23T11:07:01.047Z,16.00
2019-02-23T11:09:35.718Z,15.57
2019-02-23T11:12:04.576Z,15.70
2019-02-23T11:14:33.481Z,15.27
2019-02-23T11:17:02.321Z,15.33
2019-02-23T11:19:31.350Z,16.07
2019-02-23T11:22:00.182Z,14.93
2019-02-23T11:24:28.982Z,15.63
2019-02-23T11:26:57.782Z,14.87
2019-02-23T11:29:26.554Z,15.63
2019-02-23T11:31:55.245Z,14.83
2019-02-23T11:34:23.892Z,16.03
2019-02-23T11:36:52.670Z,15.23
2019-02-23T11:39:21.507Z,15.23
2019-02-23T11:41:50.228Z,15.07
2019-02-23T11:44:19.028Z,15.77
2019-02-23T11:46:59.880Z,14.43
2019-02-23T11:49:18.213Z,15.30
2019-02-23T11:51:47.029Z,15.10
2019-02-23T11:54:15.869Z,14.87
2019-02-23T11:56:44.572Z,14.97
2019-02-23T11:59:13.266Z,13.63
2019-02-23T12:01:42.121Z,13.50
2019-02-23T12:04:10.825Z,13.67
2019-02-23T12:06:39.429Z,14.73
2019-02-23T12:09:08.657Z,13.97
2019-02-23T12:11:37.393Z,14.37
2019-02-23T12:14:06.075Z,13.73
2019-02-23T12:16:34.719Z,14.03
2019-02-23T12:19:03.621Z,13.37
2019-02-23T12:21:32.546Z,14.53
2019-02-23T12:24:06.055Z,14.57
2019-02-23T12:26:32.125Z,13.17
2019-02-23T12:29:00.896Z,13.90
2019-02-23T12:31:48.739Z,13.77
2019-02-23T12:34:17.481Z,12.90
2019-02-23T12:36:46.168Z,13.87
2019-02-23T12:39:14.985Z,13.13
2019-02-23T12:41:43.635Z,13.30
2019-02-23T12:44:12.269Z,13.97
2019-02-23T12:46:41.075Z,13.53
2019-02-23T12:49:09.991Z,13.33
2019-02-23T12:51:38.686Z,12.87
2019-02-23T12:54:16.420Z,12.30
2019-02-23T12:56:37.800Z,13.37
2019-02-23T12:59:06.633Z,13.27
2019-02-23T13:01:35.564Z,14.07
2019-02-23T13:04:04.412Z,12.77
2019-02-23T13:06:33.171Z,12.10
2019-02-23T13:09:30.206Z,12.50
2019-02-23T13:12:10.408Z,12.40
2019-02-23T13:15:02.472Z,12.53
2019-02-23T13:17:50.238Z,12.83
2019-02-23T13:20:40.900Z,12.47
2019-02-23T13:23:31.523Z,13.70
2019-02-23T13:26:28.376Z,12.50
2019-02-23T13:29:01.707Z,12.70
2019-02-23T13:31:42.480Z,12.67
2019-02-23T13:34:48.217Z,12.97
2019-02-23T13:37:36.021Z,12.37
2019-02-23T13:40:13.398Z,12.43
2019-02-23T13:42:47.681Z,11.90
2019-02-23T13:45:34.610Z,11.77
2019-02-23T13:48:10.711Z,12.33
2019-02-23T13:50:52.331Z,12.93
2019-02-23T13:53:36.330Z,13.13
2019-02-23T13:56:15.283Z,12.27
2019-02-23T13:59:05.987Z,11.83
2019-02-23T14:01:52.517Z,12.30
2019-02-23T14:04:58.625Z,12.13
2019-02-23T14:07:38.533Z,11.87
2019-02-23T14:10:17.915Z,12.30
2019-02-23T14:13:11.815Z,11.47
2019-02-23T14:15:58.597Z,11.47
2019-02-23T14:18:40.937Z,12.13
2019-02-23T14:21:28.947Z,11.50
2019-02-23T14:24:15.290Z,11.67
2019-02-23T14:27:02.237Z,11.63
2019-02-23T14:29:46.861Z,11.30
2019-02-23T14:32:26.305Z,11.73
2019-02-23T14:35:14.133Z,11.17
2019-02-23T14:38:07.969Z,12.00
2019-02-23T14:41:01.509Z,10.80
2019-02-23T14:43:51.936Z,11.00
2019-02-23T14:46:45.831Z,11.03
2019-02-23T14:49:36.120Z,11.13
2019-02-23T14:52:22.851Z,11.90
2019-02-23T14:55:20.029Z,11.23
2019-02-23T14:58:02.732Z,11.43
2019-02-23T15:00:52.772Z,11.13
2019-02-23T15:03:43.665Z,10.63
2019-02-23T15:06:19.866Z,10.87
2019-02-23T15:09:13.396Z,11.20
2019-02-23T15:12:15.970Z,10.57
2019-02-23T15:14:50.701Z,10.83
2019-02-23T15:17:38.483Z,10.73
2019-02-23T15:20:25.005Z,10.00
2019-02-23T15:23:03.076Z,10.23
2019-02-23T15:25:45.279Z,10.23
2019-02-23T15:28:36.047Z,10.53
2019-02-23T15:31:14.185Z,10.03
2019-02-23T15:34:00.893Z,9.80
2019-02-23T15:36:32.895Z,10.30
2019-02-23T15:39:18.563Z,10.13
2019-02-23T15:42:05.322Z,9.97
2019-02-23T15:44:51.645Z,10.30
2019-02-23T15:47:29.813Z,9.50
2019-02-23T15:49:58.714Z,10.10
2019-02-23T15:52:27.503Z,9.33
2019-02-23T15:54:56.464Z,10.43
2019-02-23T15:57:25.806Z,10.30
2019-02-23T15:59:54.601Z,10.13
2019-02-23T16:02:23.266Z,10.20
2019-02-23T16:04:52.962Z,10.03
2019-02-23T16:07:21.837Z,10.47
2019-02-23T16:09:50.538Z,9.40
2019-02-23T16:12:19.281Z,9.37
2019-02-23T16:14:48.375Z,9.30
2019-02-23T16:17:17.267Z,9.27
2019-02-23T16:19:46.217Z,8.77
2019-02-23T16:22:18.356Z,8.90
2019-02-23T16:24:45.569Z,9.50
2019-02-23T16:27:14.373Z,9.70
2019-02-23T16:29:43.071Z,9.10
2019-02-23T16:32:11.915Z,8.43
2019-02-23T16:34:40.669Z,9.50
2019-02-23T16:37:09.391Z,8.73
2019-02-23T16:39:40.490Z,8.70
2019-02-23T16:42:08.421Z,9.17
2019-02-23T16:44:37.226Z,9.20
2019-02-23T16:47:05.958Z,9.03
2019-02-23T16:49:34.781Z,8.67
2019-02-23T16:52:03.543Z,8.60
2019-02-23T16:54:32.218Z,8.97
2019-02-23T16:57:00.871Z,8.93
2019-02-23T16:59:29.607Z,8.00
2019-02-23T17:01:58.218Z,9.30
2019-02-23T17:04:27.106Z,8.53
2019-02-23T17:06:55.853Z,9.17
2019-02-23T17:09:25.668Z,8.60
2019-02-23T17:11:54.898Z,8.87
2019-02-23T17:14:23.730Z,8.90
2019-02-23T17:16:52.404Z,8.57
2019-02-23T17:19:21.235Z,7.97
2019-02-23T17:21:50.017Z,8.60
2019-02-23T17:24:18.861Z,8.10
2019-02-23T17:26:47.593Z,8.37
2019-02-23T17:29:16.483Z,9.00
2019-02-23T17:31:45.096Z,8.57
2019-02-23T17:34:13.844Z,8.83
2019-02-23T17:36:42.541Z,8.10
2019-02-23T17:39:11.345Z,8.63
2019-02-23T17:41:40.095Z,8.20
2019-02-23T17:44:08.817Z,8.17
2019-02-23T17:46:37.483Z,8.00
2019-02-23T17:49:06.146Z,8.07
2019-02-23T17:51:34.835Z,7.43
2019-02-23T17:54:03.447Z,6.53
2019-02-23T17:56:32.182Z,6.80
2019-02-23T17:59:00.989Z,6.93
2019-02-23T18:01:29.838Z,6.77
2019-02-23T18:03:58.733Z,7.00
2019-02-23T18:06:27.591Z,6.37
2019-02-23T18:08:56.286Z,6.73
2019-02-23T18:11:25.031Z,6.27
2019-02-23T18:13:53.919Z,6.23
2019-02-23T18:16:22.823Z,5.80
2019-02-23T18:18:51.638Z,6.37
2019-02-23T18:21:20.335Z,5.87
2019-02-23T18:23:49.307Z,6.47
2019-02-23T18:26:21.102Z,6.20
2019-02-23T18:28:48.744Z,6.13
2019-02-23T18:31:17.518Z,6.43
2019-02-23T18:33:46.201Z,5.50
2019-02-23T18:36:14.938Z,6.47
2019-02-23T18:38:43.767Z,5.77
2019-02-23T18:41:12.467Z,5.30
2019-02-23T18:43:41.171Z,5.70
2019-02-23T18:46:10.002Z,6.13
2019-02-23T18:48:38.725Z,6.00
2019-02-23T18:51:07.400Z,6.10
2019-02-23T18:53:36.095Z,6.80
2019-02-23T18:56:05.323Z,6.27
2019-02-23T18:58:34.117Z,5.57
2019-02-23T19:01:02.936Z,6.63
2019-02-23T19:03:31.631Z,5.90
2019-02-23T19:06:00.355Z,6.37
2019-02-23T19:08:29.553Z,5.87
2019-02-23T19:10:58.293Z,5.50
2019-02-23T19:13:26.989Z,5.70
2019-02-23T19:15:55.787Z,5.90
2019-02-23T19:18:24.546Z,6.37
2019-02-23T19:20:53.299Z,5.67
2019-02-23T19:23:22.019Z,5.77
2019-02-23T19:25:51.044Z,5.57
2019-02-23T19:28:19.850Z,5.77
2019-02-23T19:30:48.555Z,5.80
2019-02-23T19:33:17.333Z,5.57
2019-02-23T19:35:45.955Z,5.27
2019-02-23T19:38:14.729Z,5.77
2019-02-23T19:40:43.439Z,6.00
2019-02-23T19:43:12.169Z,5.93
2019-02-23T19:45:40.993Z,5.90
2019-02-23T19:48:09.855Z,5.73
2019-02-23T19:50:40.297Z,5.47
2019-02-23T19:53:09.103Z,5.53
2019-02-23T19:55:37.803Z,5.90
2019-02-23T19:58:06.399Z,5.97
2019-02-23T20:00:35.307Z,5.47
2019-02-23T20:03:04.006Z,5.57
2019-02-23T20:05:32.695Z,5.47
2019-02-23T20:08:01.651Z,5.47
2019-02-23T20:10:30.465Z,5.33
2019-02-23T20:12:59.170Z,5.67
2019-02-23T20:15:27.809Z,5.43
2019-02-23T20:17:56.529Z,5.30
2019-02-23T20:20:25.204Z,5.00
2019-02-23T20:22:53.898Z,4.90
2019-02-23T20:25:22.779Z,4.97
2019-02-23T20:27:51.396Z,4.90
2019-02-23T20:30:20.180Z,5.50
2019-02-23T20:32:48.944Z,5.00
2019-02-23T20:35:17.730Z,5.40
2019-02-23T20:37:46.481Z,5.20
2019-02-23T20:40:15.259Z,5.30
2019-02-23T20:42:44.014Z,5.50
2019-02-23T20:45:12.909Z,5.10
2019-02-23T20:47:41.681Z,5.13
2019-02-23T20:50:10.475Z,4.27
2019-02-23T20:52:39.206Z,4.77
2019-02-23T20:55:07.807Z,4.90
2019-02-23T20:57:36.859Z,4.57
2019-02-23T21:00:05.530Z,4.80
2019-02-23T21:02:34.297Z,4.43
2019-02-23T21:05:03.200Z,3.90
2019-02-23T21:07:31.910Z,3.90
2019-02-23T21:10:00.976Z,4.27
2019-02-23T21:12:29.676Z,4.30
2019-02-23T21:14:58.370Z,4.17
2019-02-23T21:17:27.033Z,4.03
2019-02-23T21:19:55.695Z,4.27
2019-02-23T21:22:24.843Z,4.47
2019-02-23T21:24:53.701Z,4.23
2019-02-23T21:27:24.423Z,4.23
2019-02-23T21:29:53.149Z,4.17
2019-02-23T21:32:22.007Z,4.40
2019-02-23T21:34:50.650Z,3.90
2019-02-23T21:37:19.407Z,3.93
2019-02-23T21:39:48.088Z,4.17
2019-02-23T21:42:16.970Z,4.77
2019-02-23T21:44:45.643Z,3.93
2019-02-23T21:47:14.327Z,4.47
2019-02-23T21:49:43.043Z,4.07
2019-02-23T21:52:11.809Z,4.23
2019-02-23T21:54:40.617Z,4.10
2019-02-23T21:57:09.358Z,4.43
2019-02-23T21:59:38.410Z,4.00
2019-02-23T22:02:07.240Z,3.80
2019-02-23T22:04:35.917Z,3.93
2019-02-23T22:07:04.952Z,3.47
2019-02-23T22:09:33.753Z,3.80
2019-02-23T22:12:02.722Z,3.80
2019-02-23T22:14:31.441Z,3.80
2019-02-23T22:17:00.193Z,4.10
2019-02-23T22:19:28.776Z,4.40
2019-02-23T22:21:57.514Z,4.20
2019-02-23T22:24:26.240Z,3.80
2019-02-23T22:26:54.962Z,4.20
2019-02-23T22:29:23.743Z,4.20
2019-02-23T22:31:52.561Z,4.47
2019-02-23T22:34:21.310Z,4.30
2019-02-23T22:36:50.120Z,4.27
2019-02-23T22:39:19.255Z,4.30
2019-02-23T22:41:49.836Z,4.23
2019-02-23T22:44:18.429Z,4.73
2019-02-23T22:46:47.185Z,4.50
2019-02-23T22:49:16.100Z,4.37
2019-02-23T22:51:44.832Z,4.87
2019-02-23T22:54:13.493Z,4.37
2019-02-23T22:56:42.236Z,4.60
2019-02-23T22:59:11.107Z,4.60
2019-02-23T23:01:39.810Z,4.67
2019-02-23T23:04:08.420Z,5.07
2019-02-23T23:06:37.112Z,4.93
2019-02-23T23:09:07.827Z,4.20
2019-02-23T23:11:36.599Z,5.17
2019-02-23T23:14:05.217Z,4.43
2019-02-23T23:16:33.972Z,4.57
2019-02-23T23:19:02.989Z,4.70
2019-02-23T23:21:31.876Z,5.03
2019-02-23T23:24:00.639Z,5.20
2019-02-23T23:26:29.307Z,4.30
2019-02-23T23:28:58.020Z,5.13
2019-02-23T23:31:26.747Z,5.50
2019-02-23T23:33:56.144Z,5.10
2019-02-23T23:36:24.851Z,5.30
2019-02-23T23:38:53.681Z,5.03
2019-02-23T23:41:22.506Z,5.53
2019-02-23T23:43:51.352Z,4.70
2019-02-23T23:46:20.041Z,5.33
2019-02-23T23:48:48.886Z,5.27
2019-02-23T23:51:17.683Z,5.13
2019-02-23T23:53:46.606Z,5.30
2019-02-23T23:56:15.301Z,5.27
2019-02-23T23:58:43.994Z,5.17
